Time;durP1;ratioP1;P1;durP2;ratioP2;P2;SDS_P1;SDS_P2;PMS_P1;PMS_P2;Temp;Humidity;BMP_temperature;BMP_pressure;BME280_temperature;BME280_humidity;BME280_pressure;Samples;Min_cycle;Max_cycle;Signal;HPM_P1;HPM_P2
2021/09/23 00:01:43;;;;;;;16.17;3.92;;;;;;;14.18;100.00;100895.00;4761359;30;20479;-78
2021/09/23 00:06:43;;;;;;;;;;;;;;;14.02;100.00;100867.44;4775108;30;20028;-77
2021/09/23 00:09:08;;;;;;;23.30;4.25;;;;;;;14.04;100.00;100859.13;4774359;30;19918;-78
2021/09/23 00:11:34;;;;;;;20.73;3.70;;;;;;;14.02;100.00;100853.91;4743740;30;20544;-78
2021/09/23 00:14:00;;;;;;;19.15;3.88;;;;;;;14.00;100.00;100853.31;4773108;30;20103;-78
2021/09/23 00:16:25;;;;;;;19.45;3.67;;;;;;;13.91;100.00;100834.84;4773329;30;20043;-78
2021/09/23 00:18:51;;;;;;;23.27;4.07;;;;;;;13.94;100.00;100837.97;4757609;30;20039;-77
2021/09/23 00:21:18;;;;;;;16.63;3.60;;;;;;;13.80;100.00;100814.75;4758143;30;20510;-78
2021/09/23 00:23:45;;;;;;;23.92;4.18;;;;;;;13.90;100.00;100834.03;4756712;30;20490;-78
2021/09/23 00:26:11;;;;;;;21.48;3.95;;;;;;;13.89;100.00;100826.97;4741989;30;20043;-78
2021/09/23 00:28:37;;;;;;;22.40;4.18;;;;;;;13.88;100.00;100822.63;4772970;30;20470;-78
2021/09/23 00:31:03;;;;;;;24.48;4.38;;;;;;;13.90;100.00;100827.78;4755806;30;20046;-76
2021/09/23 00:33:28;;;;;;;23.77;4.22;;;;;;;13.82;100.00;100816.19;4765819;30;20116;-78
2021/09/23 00:35:53;;;;;;;21.92;4.13;;;;;;;13.82;100.00;100818.91;4779504;30;20090;-78
2021/09/23 00:38:19;;;;;;;23.10;4.60;;;;;;;13.72;100.00;100794.25;4779361;30;20079;-78
2021/09/23 00:40:44;;;;;;;22.55;4.00;;;;;;;13.70;100.00;100787.38;4764014;30;20043;-77
2021/09/23 00:43:11;;;;;;;23.88;5.00;;;;;;;13.84;100.00;100802.44;4765308;30;20545;-77
2021/09/23 00:45:36;;;;;;;23.75;4.38;;;;;;;13.81;100.00;100783.97;4760149;30;20035;-77
2021/09/23 00:48:02;;;;;;;23.85;4.60;;;;;;;13.87;100.00;100796.59;4768215;30;20430;-78
2021/09/23 00:50:28;;;;;;;23.65;4.43;;;;;;;13.88;100.00;100792.03;4761782;30;20367;-77
2021/09/23 00:52:55;;;;;;;23.08;4.57;;;;;;;13.90;100.00;100788.03;4776178;30;20036;-77
2021/09/23 00:55:22;;;;;;;21.13;5.05;;;;;;;13.89;100.00;100791.81;4761211;30;20423;-79
2021/09/23 00:57:47;;;;;;;30.73;4.75;;;;;;;13.87;100.00;100777.66;4775765;30;20486;-78
2021/09/23 01:00:15;;;;;;;29.08;5.20;;;;;;;13.84;100.00;100759.16;4776881;30;20044;-78
2021/09/23 01:02:40;;;;;;;23.85;5.45;;;;;;;13.90;100.00;100765.59;4775998;30;20043;-78
2021/09/23 01:05:07;;;;;;;19.05;4.60;;;;;;;13.83;100.00;100749.41;4776682;30;20043;-78
2021/09/23 01:07:32;;;;;;;24.35;4.55;;;;;;;13.88;100.00;100744.19;4778509;30;20027;-78
2021/09/23 01:09:57;;;;;;;20.88;4.97;;;;;;;13.86;100.00;100738.97;4765142;30;20053;-76
2021/09/23 01:12:26;;;;;;;24.67;4.95;;;;;;;13.91;100.00;100737.47;4767297;30;20047;-77
2021/09/23 01:14:53;;;;;;;23.98;4.97;;;;;;;13.94;100.00;100726.22;4782290;30;20066;-77
2021/09/23 01:17:18;;;;;;;23.20;4.97;;;;;;;13.97;100.00;100720.34;4777227;30;20362;-78
2021/09/23 01:19:45;;;;;;;27.25;5.72;;;;;;;13.96;100.00;100718.72;4775204;30;20066;-78
2021/09/23 01:22:11;;;;;;;26.38;4.78;;;;;;;13.95;100.00;100712.47;4743828;30;20036;-77
2021/09/23 01:24:38;;;;;;;24.25;5.53;;;;;;;14.00;100.00;100714.50;4759358;30;20516;-78
2021/09/23 01:27:05;;;;;;;25.08;4.88;;;;;;;13.99;100.00;100716.38;4758353;30;20032;-78
2021/09/23 01:29:32;;;;;;;32.80;5.43;;;;;;;13.95;100.00;100703.53;4772195;30;20048;-78
2021/09/23 01:31:58;;;;;;;17.63;4.18;;;;;;;13.98;100.00;100695.81;4773538;30;20039;-78
2021/09/23 01:34:23;;;;;;;22.23;5.18;;;;;;;14.00;100.00;100690.16;4773399;30;20035;-78
2021/09/23 01:36:57;;;;;;;26.13;4.75;;;;;;;14.02;100.00;100694.28;4773311;30;20032;-79
2021/09/23 01:39:25;;;;;;;17.95;4.35;;;;;;;14.03;100.00;100677.00;4773871;30;20039;-78
2021/09/23 01:41:52;;;;;;;21.58;4.65;;;;;;;14.01;100.00;100662.06;4758228;30;20408;-78
2021/09/23 01:44:18;;;;;;;20.92;3.95;;;;;;;14.05;100.00;100665.97;4773046;30;20034;-78
2021/09/23 01:46:43;;;;;;;23.52;4.47;;;;;;;14.10;100.00;100669.66;4774975;30;20028;-78
2021/09/23 01:49:09;;;;;;;24.08;4.63;;;;;;;14.12;100.00;100657.78;4774010;30;20043;-78
2021/09/23 01:51:34;;;;;;;23.25;4.82;;;;;;;14.10;100.00;100655.28;4758120;30;20077;-78
2021/09/23 01:54:01;;;;;;;22.08;4.55;;;;;;;14.08;100.00;100639.28;4774394;30;20028;-78
2021/09/23 01:56:27;;;;;;;22.13;4.55;;;;;;;14.13;100.00;100635.88;4757943;30;20046;-77
2021/09/23 01:58:52;;;;;;;17.75;4.15;;;;;;;14.16;100.00;100626.50;4758512;30;20040;-78
2021/09/23 02:01:18;;;;;;;20.35;4.80;;;;;;;14.19;100.00;100623.34;4773808;30;20485;-78
2021/09/23 02:03:43;;;;;;;19.50;4.43;;;;;;;14.20;100.00;100617.69;4758514;30;20051;-78
2021/09/23 02:06:09;;;;;;;17.45;4.50;;;;;;;14.18;100.00;100598.16;4773151;30;20036;-78
2021/09/23 02:08:34;;;;;;;20.60;5.10;;;;;;;14.18;100.00;100591.94;4771701;30;20036;-77
2021/09/23 02:11:00;;;;;;;21.95;4.43;;;;;;;14.21;100.00;100584.19;4755363;30;20054;-77
2021/09/23 02:13:25;;;;;;;23.00;4.45;;;;;;;14.26;100.00;100581.59;4773263;30;20059;-77
2021/09/23 02:15:51;;;;;;;23.00;4.97;;;;;;;14.25;100.00;100573.72;4779541;29;20039;-78
2021/09/23 02:18:18;;;;;;;22.02;4.63;;;;;;;14.23;100.00;100556.88;4748635;30;20043;-77
2021/09/23 02:20:43;;;;;;;20.98;4.60;;;;;;;14.13;100.00;100529.53;4780447;30;20114;-77
2021/09/23 02:23:09;;;;;;;26.02;5.15;;;;;;;14.26;100.00;100545.59;4779202;30;20023;-77
2021/09/23 02:25:34;;;;;;;18.67;4.07;;;;;;;14.30;100.00;100541.38;4768359;30;20046;-78
2021/09/23 02:28:01;;;;;;;21.40;4.47;;;;;;;14.31;100.00;100543.03;4759211;30;20055;-77
2021/09/23 02:30:28;;;;;;;22.80;4.40;;;;;;;14.26;100.00;100534.78;4759686;30;20055;-78
2021/09/23 02:32:54;;;;;;;18.10;4.38;;;;;;;14.30;100.00;100541.38;4758586;30;20056;-78
2021/09/23 02:35:20;;;;;;;26.85;4.85;;;;;;;14.29;100.00;100539.72;4774171;30;20463;-78
2021/09/23 02:37:46;;;;;;;25.23;5.20;;;;;;;14.31;100.00;100515.97;4759086;30;20108;-78
2021/09/23 02:40:13;;;;;;;21.08;4.53;;;;;;;14.34;100.00;100527.16;4774221;30;20023;-77
2021/09/23 02:42:38;;;;;;;23.65;5.68;;;;;;;14.27;100.00;100504.78;4758937;30;20103;-78
2021/09/23 02:45:04;;;;;;;22.77;4.50;;;;;;;14.25;100.00;100497.94;4759081;30;20060;-78
2021/09/23 02:47:30;;;;;;;25.35;4.35;;;;;;;14.33;100.00;100508.44;4763316;30;20039;-78
2021/09/23 02:49:57;;;;;;;24.98;5.10;;;;;;;14.21;100.00;100500.28;4778511;30;20097;-78
2021/09/23 02:52:22;;;;;;;17.45;4.50;;;;;;;14.36;100.00;100499.84;4762393;30;20118;-78
2021/09/23 02:54:48;;;;;;;18.50;4.65;;;;;;;14.36;100.00;100497.13;4762243;30;20074;-78
2021/09/23 02:57:13;;;;;;;22.52;4.97;;;;;;;14.33;100.00;100495.72;4763291;30;20069;-78
2021/09/23 02:59:39;;;;;;;18.20;4.72;;;;;;;14.34;100.00;100478.44;4777472;30;20055;-78
2021/09/23 03:02:06;;;;;;;18.45;4.82;;;;;;;14.27;100.00;100457.91;4763736;30;20032;-78
2021/09/23 03:04:32;;;;;;;28.45;5.25;;;;;;;14.23;100.00;100448.63;4778551;30;20023;-78
2021/09/23 03:06:57;;;;;;;26.52;5.43;;;;;;;14.22;100.00;100439.69;4779789;30;20127;-79
2021/09/23 03:09:23;;;;;;;24.13;5.50;;;;;;;14.23;100.00;100438.63;4767937;30;20154;-78
2021/09/23 03:11:48;;;;;;;22.20;5.00;;;;;;;14.23;100.00;100449.44;4762829;30;20060;-77
2021/09/23 03:14:14;;;;;;;24.08;5.60;;;;;;;14.12;100.00;100423.19;4761329;30;20046;-78
2021/09/23 03:16:50;;;;;;;25.17;5.65;;;;;;;14.09;100.00;100397.41;4762521;30;20111;-77
2021/09/23 03:19:16;;;;;;;16.67;5.15;;;;;;;14.11;100.00;100397.22;4778208;30;20117;-78
2021/09/23 03:21:41;;;;;;;20.48;5.75;;;;;;;14.15;100.00;100401.09;4763029;30;20077;-78
2021/09/23 03:24:07;;;;;;;27.48;5.55;;;;;;;14.14;100.00;100395.91;4777582;30;20039;-78
2021/09/23 03:26:33;;;;;;;18.30;5.60;;;;;;;14.09;100.00;100400.13;4781689;30;20040;-78
2021/09/23 03:28:58;;;;;;;27.30;6.05;;;;;;;14.15;100.00;100392.16;4754202;30;20073;-77
2021/09/23 03:31:24;;;;;;;27.73;6.40;;;;;;;14.11;100.00;100386.38;4781715;30;20067;-78
2021/09/23 03:33:50;;;;;;;24.27;6.10;;;;;;;14.13;100.00;100386.97;4772928;30;20043;-78
2021/09/23 03:36:15;;;;;;;18.73;6.20;;;;;;;14.10;100.00;100380.16;4774445;30;20353;-78
2021/09/23 03:38:41;;;;;;;26.63;7.97;;;;;;;14.08;100.00;100371.44;4773544;30;20079;-78
2021/09/23 03:41:07;;;;;;;25.27;7.53;;;;;;;14.06;100.00;100373.53;4774194;30;20036;-78
2021/09/23 03:43:33;;;;;;;26.40;7.68;;;;;;;14.12;100.00;100374.50;4773779;30;20530;-78
2021/09/23 03:46:04;;;;;;;29.88;7.60;;;;;;;14.15;100.00;100367.81;4756746;30;20115;-78
2021/09/23 03:48:30;;;;;;;33.20;8.70;;;;;;;14.11;100.00;100362.03;4772640;30;20043;-78
2021/09/23 03:50:55;;;;;;;26.33;7.78;;;;;;;14.08;100.00;100338.97;4773209;30;20036;-78
2021/09/23 03:53:22;;;;;;;25.38;7.82;;;;;;;14.12;100.00;100358.25;4742559;30;20036;-77
2021/09/23 03:55:49;;;;;;;22.45;8.05;;;;;;;14.13;100.00;100343.66;4744969;30;20036;-77
2021/09/23 03:58:14;;;;;;;27.05;7.90;;;;;;;14.15;100.00;100338.84;4775016;30;20094;-78
2021/09/23 04:00:41;;;;;;;25.50;7.40;;;;;;;14.12;100.00;100324.97;4772689;30;20525;-77
2021/09/23 04:03:06;;;;;;;29.38;8.25;;;;;;;14.10;100.00;100317.06;4759192;30;20051;-78
2021/09/23 04:05:32;;;;;;;23.70;6.90;;;;;;;14.06;100.00;100299.66;4760105;30;20035;-78
2021/09/23 04:07:57;;;;;;;25.77;7.05;;;;;;;14.12;100.00;100289.81;4775874;30;20046;-78
2021/09/23 04:10:22;;;;;;;26.20;7.38;;;;;;;14.13;100.00;100283.31;4777000;30;20035;-78
2021/09/23 04:12:49;;;;;;;24.60;7.45;;;;;;;14.06;100.00;100278.03;4760078;30;20046;-78
2021/09/23 04:15:15;;;;;;;24.98;6.93;;;;;;;14.15;100.00;100271.22;4776050;30;20039;-79
2021/09/23 04:17:40;;;;;;;27.58;7.15;;;;;;;14.14;100.00;100260.59;4776780;30;20480;-78
2021/09/23 04:20:07;;;;;;;20.67;6.07;;;;;;;14.18;100.00;100267.22;4775498;30;20486;-78
2021/09/23 04:22:32;;;;;;;24.92;7.13;;;;;;;14.14;100.00;100256.03;4776906;30;20383;-78
2021/09/23 04:24:58;;;;;;;24.92;7.22;;;;;;;14.18;100.00;100256.41;4758365;30;20057;-78
2021/09/23 04:27:23;;;;;;;28.13;7.30;;;;;;;14.17;100.00;100252.03;4759710;30;20044;-78
2021/09/23 04:29:49;;;;;;;22.92;7.57;;;;;;;14.21;100.00;100245.09;4745254;30;20094;-78
2021/09/23 04:32:14;;;;;;;30.05;7.85;;;;;;;14.21;100.00;100242.41;4775365;30;20052;-78
2021/09/23 04:34:41;;;;;;;28.67;7.53;;;;;;;14.13;100.00;100212.97;4776641;30;20054;-77
2021/09/23 04:37:07;;;;;;;28.35;7.70;;;;;;;14.19;100.00;100223.69;4762019;30;20035;-78
2021/09/23 04:39:32;;;;;;;23.23;7.25;;;;;;;14.15;100.00;100203.56;4751528;30;20050;-77
2021/09/23 04:41:58;;;;;;;26.52;7.40;;;;;;;14.15;100.00;100202.75;4780912;30;20067;-77
2021/09/23 04:44:25;;;;;;;27.42;7.53;;;;;;;14.17;100.00;100189.78;4778793;30;20533;-77
2021/09/23 04:46:51;;;;;;;26.70;7.55;;;;;;;14.15;100.00;100187.34;4761502;30;20056;-78
2021/09/23 04:49:17;;;;;;;24.70;7.30;;;;;;;14.13;100.00;100180.50;4756831;30;20126;-78
2021/09/23 04:51:42;;;;;;;25.35;6.95;;;;;;;14.14;100.00;100176.72;4769653;30;20055;-79
2021/09/23 04:54:08;;;;;;;25.42;7.55;;;;;;;14.16;100.00;100188.16;4754419;30;20082;-78
2021/09/23 04:56:34;;;;;;;31.30;7.80;;;;;;;14.07;100.00;100172.31;4747886;30;20035;-78
2021/09/23 04:59:01;;;;;;;18.60;6.85;;;;;;;14.12;100.00;100154.53;4764127;30;20043;-78
2021/09/23 05:01:26;;;;;;;25.85;7.55;;;;;;;14.14;100.00;100157.78;4757868;30;20185;-77
2021/09/23 05:03:52;;;;;;;27.10;7.47;;;;;;;14.11;100.00;100156.41;4757860;30;20115;-77
2021/09/23 05:06:18;;;;;;;23.17;7.50;;;;;;;14.11;100.00;100151.00;4784397;30;20036;-78
2021/09/23 05:08:43;;;;;;;26.73;8.13;;;;;;;14.12;100.00;100147.22;4767457;30;20047;-77
2021/09/23 05:11:08;;;;;;;26.35;7.53;;;;;;;14.15;100.00;100137.81;4778210;30;20471;-78
2021/09/23 05:13:34;;;;;;;28.85;7.22;;;;;;;14.13;100.00;100146.16;4773138;30;20121;-77
2021/09/23 05:15:59;;;;;;;24.05;7.55;;;;;;;14.12;100.00;100124.78;4765774;30;20196;-77
2021/09/23 05:18:25;;;;;;;24.02;6.85;;;;;;;14.13;100.00;100124.50;4768793;30;20110;-77
2021/09/23 05:20:50;;;;;;;20.77;6.82;;;;;;;14.14;100.00;100104.53;4753552;30;20042;-77
2021/09/23 05:23:16;;;;;;;19.02;7.03;;;;;;;14.12;100.00;100100.41;4783557;30;20630;-78
2021/09/23 05:25:41;;;;;;;23.50;6.43;;;;;;;14.14;100.00;100091.00;4776347;30;20126;-79
2021/09/23 05:28:08;;;;;;;22.45;6.82;;;;;;;14.13;100.00;100077.69;4756024;30;20122;-78
2021/09/23 05:30:39;;;;;;;18.55;6.72;;;;;;;14.09;100.00;100070.06;5072715;27;1517786;-78
2021/09/23 05:33:06;;;;;;;20.95;6.70;;;;;;;14.14;100.00;100063.94;5101207;28;20031;-78
2021/09/23 05:35:32;;;;;;;20.27;6.50;;;;;;;14.15;100.00;100062.06;5097788;28;20453;-76
2021/09/23 05:37:57;;;;;;;22.50;6.40;;;;;;;14.15;100.00;100056.66;5105475;28;20025;-76
2021/09/23 05:40:23;;;;;;;21.80;5.88;;;;;;;14.04;100.00;100045.63;5110243;28;20036;-77
2021/09/23 05:42:48;;;;;;;19.40;5.20;;;;;;;14.14;100.00;100047.72;5106575;28;20051;-76
2021/09/23 05:45:14;;;;;;;15.18;5.13;;;;;;;14.15;100.00;100035.00;5114933;28;20035;-77
2021/09/23 05:47:41;;;;;;;17.42;5.38;;;;;;;14.14;100.00;100027.94;5092521;28;20047;-77
2021/09/23 05:50:09;;;;;;;15.40;4.43;;;;;;;14.16;100.00;100021.22;5110709;28;20373;-77
2021/09/23 05:52:35;;;;;;;21.48;4.82;;;;;;;14.18;100.00;100021.00;5117768;28;20019;-77
2021/09/23 05:55:01;;;;;;;16.05;4.60;;;;;;;14.17;100.00;100012.06;5106150;28;20047;-78
2021/09/23 05:57:33;;;;;;;17.67;5.35;;;;;;;14.12;100.00;99993.00;5107112;28;20392;-77
2021/09/23 06:00:05;;;;;;;18.67;4.95;;;;;;;14.14;100.00;99990.06;5112475;28;20023;-77
2021/09/23 06:02:31;;;;;;;16.05;4.78;;;;;;;14.21;100.00;99999.69;5113141;28;20077;-78
2021/09/23 06:04:56;;;;;;;18.65;4.70;;;;;;;14.24;100.00;99995.69;5100356;28;20027;-77
2021/09/23 06:07:21;;;;;;;19.77;4.78;;;;;;;14.27;100.00;99981.63;5086047;28;20051;-76
2021/09/23 06:09:47;;;;;;;12.13;4.25;;;;;;;14.25;100.00;99975.66;5121657;28;20028;-76
2021/09/23 06:12:12;;;;;;;16.35;3.85;;;;;;;14.29;100.00;99982.22;5118872;28;20042;-77
2021/09/23 06:14:37;;;;;;;17.77;4.05;;;;;;;14.24;100.00;99968.63;5105862;28;20175;-77
2021/09/23 06:17:04;;;;;;;13.60;4.13;;;;;;;14.27;100.00;99962.69;5095254;28;20020;-78
2021/09/23 06:19:30;;;;;;;14.52;3.90;;;;;;;14.27;100.00;99966.25;5085636;28;20116;-78
2021/09/23 06:21:56;;;;;;;15.02;3.60;;;;;;;14.30;100.00;99963.06;5107784;28;20028;-77
2021/09/23 06:24:21;;;;;;;20.08;3.90;;;;;;;14.30;100.00;99954.94;5108053;28;20051;-76
2021/09/23 06:26:47;;;;;;;17.98;3.70;;;;;;;14.31;100.00;99947.63;5091227;28;20032;-77
2021/09/23 06:29:14;;;;;;;18.60;3.80;;;;;;;14.29;100.00;99944.34;5095367;28;20197;-76
2021/09/23 06:31:39;;;;;;;14.73;3.60;;;;;;;14.36;100.00;99931.47;5090178;28;20125;-77
2021/09/23 06:34:05;;;;;;;17.00;4.10;;;;;;;14.32;100.00;99917.59;5109582;28;20085;-80
2021/09/23 06:36:33;;;;;;;17.10;4.05;;;;;;;14.30;100.00;99894.56;5104445;28;20099;-77
2021/09/23 06:38:59;;;;;;;14.38;4.03;;;;;;;14.35;100.00;99910.88;5115029;28;20058;-76
2021/09/23 06:41:24;;;;;;;17.77;3.72;;;;;;;14.33;100.00;99899.47;5099060;28;20020;-78
2021/09/23 06:43:51;;;;;;;13.98;4.22;;;;;;;14.30;100.00;99884.56;5091085;28;20028;-79
2021/09/23 06:46:19;;;;;;;15.30;3.88;;;;;;;14.36;100.00;99890.06;5077040;28;20119;-79
2021/09/23 06:48:44;;;;;;;17.33;3.05;;;;;;;14.42;100.00;99908.84;5085124;28;20165;-76
2021/09/23 06:51:09;;;;;;;11.38;1.92;;;;;;;14.24;100.00;99931.56;5052418;28;20096;-78
2021/09/23 06:53:35;;;;;;;13.75;1.58;;;;;;;13.87;100.00;99925.72;5086716;28;20035;-77
2021/09/23 06:56:00;;;;;;;15.75;1.92;;;;;;;13.56;100.00;99911.63;5085400;28;20098;-79
2021/09/23 06:58:26;;;;;;;6.65;1.10;;;;;;;13.33;100.00;99917.13;5084609;28;20044;-79
2021/09/23 07:00:51;;;;;;;8.95;1.20;;;;;;;13.09;100.00;99909.03;5080915;28;20021;-79
2021/09/23 07:03:18;;;;;;;15.90;1.20;;;;;;;13.01;100.00;99900.47;5069541;28;20016;-79
2021/09/23 07:05:44;;;;;;;10.95;1.13;;;;;;;12.97;100.00;99905.53;5090760;28;20038;-79
2021/09/23 07:08:14;;;;;;;11.50;1.17;;;;;;;12.86;100.00;99874.78;5078890;28;20028;-79
2021/09/23 07:10:39;;;;;;;4.82;1.08;;;;;;;12.86;100.00;99876.66;5079592;28;20044;-79
2021/09/23 07:13:05;;;;;;;6.15;1.00;;;;;;;12.80;100.00;99885.72;5085857;28;20028;-79
2021/09/23 07:15:31;;;;;;;6.70;1.10;;;;;;;12.74;100.00;99882.06;5074216;28;20044;-79
2021/09/23 07:17:56;;;;;;;8.88;1.02;;;;;;;12.76;100.00;99881.84;5077604;28;20051;-78
2021/09/23 07:20:21;;;;;;;5.20;0.95;;;;;;;12.70;100.00;99873.63;5078206;28;20028;-76
2021/09/23 07:22:47;;;;;;;5.57;0.80;;;;;;;12.68;100.00;99866.81;5102582;28;20028;-79
2021/09/23 07:25:12;;;;;;;7.95;0.90;;;;;;;12.69;100.00;99863.88;5085427;28;20038;-77
2021/09/23 07:27:38;;;;;;;7.40;0.95;;;;;;;12.68;100.00;99864.09;5090436;28;20039;-76
2021/09/23 07:30:04;;;;;;;8.55;1.10;;;;;;;12.65;100.00;99860.03;5086449;28;20488;-77
2021/09/23 07:32:29;;;;;;;8.20;1.00;;;;;;;12.62;100.00;99855.09;5059486;28;20491;-78
2021/09/23 07:34:55;;;;;;;9.93;0.98;;;;;;;12.61;100.00;99833.72;5071014;28;20040;-79
2021/09/23 07:37:20;;;;;;;10.60;1.25;;;;;;;12.64;100.00;99836.78;5071023;28;20024;-79
2021/09/23 07:39:46;;;;;;;12.07;1.10;;;;;;;12.66;100.00;99845.47;5089775;28;20017;-79
2021/09/23 07:42:12;;;;;;;13.77;1.50;;;;;;;12.69;100.00;99836.91;5075735;28;20028;-78
2021/09/23 07:44:40;;;;;;;12.23;1.23;;;;;;;12.68;100.00;99827.16;5074301;28;20096;-79
2021/09/23 07:47:06;;;;;;;12.23;1.27;;;;;;;12.69;100.00;99823.41;5092036;28;20089;-79
2021/09/23 07:49:31;;;;;;;9.23;1.00;;;;;;;12.66;100.00;99818.47;5082952;28;20028;-79
2021/09/23 07:51:57;;;;;;;8.13;0.90;;;;;;;12.69;100.00;99828.81;5079467;28;20024;-78
2021/09/23 07:54:22;;;;;;;9.00;1.33;;;;;;;12.68;100.00;99826.31;5094415;28;20036;-79
2021/09/23 07:56:48;;;;;;;10.52;1.33;;;;;;;12.62;100.00;99817.31;5078329;28;20036;-78
2021/09/23 07:59:13;;;;;;;6.88;0.88;;;;;;;12.63;100.00;99807.34;5095212;28;20063;-78
2021/09/23 08:01:38;;;;;;;6.55;0.85;;;;;;;12.61;100.00;99804.03;5087910;28;20103;-78
2021/09/23 08:04:04;;;;;;;9.40;0.80;;;;;;;12.48;100.00;99788.91;5118315;28;20027;-79
2021/09/23 08:06:30;;;;;;;10.88;0.90;;;;;;;12.52;100.00;99782.00;5107178;28;20118;-78
2021/09/23 08:08:57;;;;;;;7.78;1.05;;;;;;;12.45;100.00;99768.66;5096604;28;20572;-78
2021/09/23 08:11:23;;;;;;;7.63;0.90;;;;;;;12.53;100.00;99775.56;5100812;28;20357;-78
2021/09/23 08:13:49;;;;;;;7.65;1.05;;;;;;;12.55;100.00;99762.66;5099572;28;20088;-78
2021/09/23 08:16:14;;;;;;;5.88;0.88;;;;;;;12.57;100.00;99749.72;5099764;28;20111;-77
2021/09/23 08:18:40;;;;;;;6.05;0.90;;;;;;;12.63;100.00;99737.97;5092310;28;20029;-78
2021/09/23 08:21:05;;;;;;;8.00;1.05;;;;;;;12.63;100.00;99718.28;5080131;28;20028;-79
2021/09/23 08:23:31;;;;;;;11.75;1.40;;;;;;;12.70;100.00;99722.47;5077937;28;20025;-79
2021/09/23 08:25:56;;;;;;;7.90;0.85;;;;;;;12.69;100.00;99714.63;5096641;28;20043;-79
2021/09/23 08:28:26;;;;;;;6.22;1.02;;;;;;;12.78;100.00;99723.16;5080014;28;20037;-78
2021/09/23 08:30:51;;;;;;;5.68;1.00;;;;;;;12.72;100.00;99718.72;5042755;28;20063;-78
2021/09/23 08:33:18;;;;;;;8.38;1.00;;;;;;;12.79;100.00;99716.72;5078180;28;20033;-78
2021/09/23 08:35:43;;;;;;;7.50;0.88;;;;;;;12.78;100.00;99707.78;5077065;28;20066;-79
2021/09/23 08:38:08;;;;;;;8.60;1.10;;;;;;;12.82;100.00;99708.13;5085368;28;20023;-79
2021/09/23 08:40:34;;;;;;;7.22;1.20;;;;;;;12.86;100.00;99693.09;5095083;28;20035;-79
2021/09/23 08:43:01;;;;;;;9.20;1.50;;;;;;;12.86;100.00;99683.09;5096169;28;20126;-78
2021/09/23 08:45:27;;;;;;;9.13;1.17;;;;;;;12.92;100.00;99676.72;5095152;28;20030;-79
2021/09/23 08:47:52;;;;;;;8.98;1.17;;;;;;;12.93;100.00;99653.25;5097740;28;20519;-77
2021/09/23 08:50:18;;;;;;;8.88;1.35;;;;;;;12.98;100.00;99653.34;5094310;28;21311;-77
2021/09/23 08:52:44;;;;;;;5.68;0.90;;;;;;;13.02;100.00;99648.28;5094022;28;20027;-78
2021/09/23 08:55:27;;;;;;;6.53;0.88;;;;;;;13.00;100.00;99636.91;5076418;28;20418;-79
2021/09/23 08:57:54;;;;;;;5.80;1.02;;;;;;;13.03;100.00;99645.31;5093042;28;20561;-79
2021/09/23 09:00:21;;;;;;;6.90;1.00;;;;;;;13.02;100.00;99624.78;5078313;28;20374;-79
2021/09/23 09:03:02;;;;;;;8.18;1.48;;;;;;;12.95;100.00;99624.13;5056221;28;20037;-78
2021/09/23 09:05:29;;;;;;;7.65;1.23;;;;;;;12.92;100.00;99605.72;5099969;28;20012;-79
2021/09/23 09:08:11;;;;;;;6.65;1.20;;;;;;;12.81;100.00;99610.09;5093317;28;20070;-79
2021/09/23 09:10:38;;;;;;;12.88;1.40;;;;;;;12.86;100.00;99622.88;5078383;28;20093;-79
2021/09/23 09:13:06;;;;;;;9.27;1.30;;;;;;;12.85;100.00;99594.25;5060929;28;20109;-79
2021/09/23 09:15:46;;;;;;;7.90;1.58;;;;;;;12.89;100.00;99595.41;5075877;28;20072;-78
2021/09/23 09:18:14;;;;;;;5.70;1.50;;;;;;;12.97;100.00;99592.28;5080667;28;20020;-78
2021/09/23 09:20:56;;;;;;;12.35;1.65;;;;;;;12.98;100.00;99577.75;5095494;28;20031;-79
2021/09/23 09:23:24;;;;;;;9.13;1.63;;;;;;;13.03;100.00;99618.31;5092491;28;20027;-79
2021/09/23 09:25:50;;;;;;;11.20;1.77;;;;;;;12.59;100.00;99583.00;5076282;28;20152;-78
2021/09/23 09:28:20;;;;;;;12.88;1.90;;;;;;;12.21;100.00;99592.53;5074389;28;20039;-79
2021/09/23 09:30:54;;;;;;;9.40;1.65;;;;;;;12.01;100.00;99632.56;5083674;28;20095;-80
2021/09/23 09:33:19;;;;;;;7.82;1.30;;;;;;;11.83;100.00;99630.81;5095532;28;20103;-78
2021/09/23 09:35:45;;;;;;;6.30;1.10;;;;;;;11.68;100.00;99649.31;5089259;28;20095;-79
2021/09/23 09:38:10;;;;;;;5.65;1.08;;;;;;;11.65;100.00;99637.13;5088491;28;20032;-79
2021/09/23 09:40:39;;;;;;;5.55;0.63;;;;;;;11.61;100.00;99622.50;5093838;28;20051;-79
2021/09/23 09:43:12;;;;;;;7.43;0.85;;;;;;;11.63;100.00;99636.56;5093582;28;20035;-78
2021/09/23 09:45:38;;;;;;;3.00;0.47;;;;;;;11.58;100.00;99630.22;5077364;28;20382;-78
2021/09/23 09:48:04;;;;;;;5.43;0.68;;;;;;;11.65;100.00;99639.00;5074716;28;20128;-78
2021/09/23 09:50:35;;;;;;;4.32;0.60;;;;;;;11.70;100.00;99636.44;5087479;28;20036;-78
2021/09/23 09:53:05;;;;;;;2.60;0.52;;;;;;;11.65;100.00;99626.34;5096311;28;20047;-78
2021/09/23 09:55:32;;;;;;;4.25;0.85;;;;;;;11.69;100.00;99621.34;5094464;28;20093;-79
2021/09/23 09:57:59;;;;;;;4.72;0.43;;;;;;;11.66;100.00;99598.38;5095074;28;20056;-78
2021/09/23 10:00:26;;;;;;;3.50;0.57;;;;;;;11.71;100.00;99601.16;5093455;28;20083;-78
2021/09/23 10:02:52;;;;;;;4.05;0.60;;;;;;;11.68;100.00;99573.88;5095336;28;20020;-79
2021/09/23 10:05:20;;;;;;;2.72;0.57;;;;;;;11.71;100.00;99574.22;5096497;28;20092;-78
2021/09/23 10:07:49;;;;;;;3.33;0.50;;;;;;;11.74;100.00;99579.13;5095786;28;20036;-78
2021/09/23 10:10:16;;;;;;;2.85;0.70;;;;;;;11.84;100.00;99580.41;5091550;28;20056;-78
2021/09/23 10:12:44;;;;;;;3.30;0.60;;;;;;;11.87;100.00;99577.28;5076240;28;20056;-78
2021/09/23 10:15:14;;;;;;;3.72;0.60;;;;;;;11.96;100.00;99590.16;5075987;28;20023;-78
2021/09/23 10:17:42;;;;;;;6.32;0.70;;;;;;;11.97;100.00;99582.88;5081566;28;20028;-79
2021/09/23 10:20:08;;;;;;;3.53;0.57;;;;;;;11.99;100.00;99578.06;5093789;28;20089;-78
2021/09/23 10:22:33;;;;;;;3.83;0.80;;;;;;;12.03;100.00;99571.13;5098880;28;20791;-78
2021/09/23 10:25:00;;;;;;;5.05;0.90;;;;;;;12.16;100.00;99575.44;5100997;28;20057;-79
2021/09/23 10:30:11;;;;;;;10.27;1.10;;;;;;;12.38;100.00;99546.75;5102721;28;20051;-78
2021/09/23 10:32:37;;;;;;;3.63;0.70;;;;;;;12.51;100.00;99545.59;5100225;28;20424;-78
2021/09/23 10:35:04;;;;;;;6.20;0.88;;;;;;;12.58;100.00;99540.91;5099855;28;20043;-77
2021/09/23 10:37:31;;;;;;;9.27;1.08;;;;;;;12.67;100.00;99525.09;5097205;28;20035;-79
2021/09/23 10:39:57;;;;;;;8.10;1.00;;;;;;;12.76;100.00;99522.84;5097868;28;20039;-78
2021/09/23 10:42:23;;;;;;;6.40;1.00;;;;;;;12.86;100.00;99523.81;5094035;28;20035;-78
2021/09/23 10:44:51;;;;;;;7.55;1.40;;;;;;;12.98;100.00;99529.16;5074810;28;20449;-78
2021/09/23 10:47:34;;;;;;;8.55;0.90;;;;;;;13.20;100.00;99531.06;5078077;28;20100;-77
2021/09/23 10:50:06;;;;;;;6.43;1.13;;;;;;;13.15;100.00;99518.31;5092974;28;20024;-78
2021/09/23 10:52:34;;;;;;;9.63;1.00;;;;;;;13.20;100.00;99529.19;5102529;28;20078;-79
2021/09/23 10:55:02;;;;;;;11.25;1.88;;;;;;;13.23;100.00;99526.00;5100632;28;20073;-79
2021/09/23 10:57:30;;;;;;;9.35;1.23;;;;;;;13.20;100.00;99520.28;5102247;28;20036;-78
2021/09/23 10:59:59;;;;;;;12.52;1.30;;;;;;;13.24;100.00;99521.41;5103090;28;20036;-77
2021/09/23 11:02:29;;;;;;;13.38;1.55;;;;;;;13.21;100.00;99511.09;5105002;28;20059;-78
2021/09/23 11:04:57;;;;;;;13.10;2.08;;;;;;;13.12;100.00;99497.22;5099865;28;20107;-78
2021/09/23 11:07:24;;;;;;;16.00;1.88;;;;;;;13.21;100.00;99517.34;5100489;28;20140;-79
2021/09/23 11:10:13;;;;;;;11.02;1.70;;;;;;;13.26;100.00;99514.72;5099250;28;20039;-78
2021/09/23 11:12:42;;;;;;;12.27;1.55;;;;;;;13.24;100.00;99500.63;5099388;28;20051;-79
2021/09/23 11:15:10;;;;;;;13.00;2.20;;;;;;;13.28;100.00;99501.81;5086945;28;20035;-78
2021/09/23 11:17:37;;;;;;;14.23;1.90;;;;;;;13.20;100.00;99493.25;5097672;28;20024;-78